createdAt,value
2018-01-25T00:00:09.796Z,1.70
2018-01-25T00:02:37.361Z,1.20
2018-01-25T00:05:04.972Z,3.90
2018-01-25T00:07:32.551Z,1.33
2018-01-25T00:10:00.204Z,1.23
2018-01-25T00:12:27.808Z,1.50
2018-01-25T00:14:55.432Z,2.13
2018-01-25T00:17:23.009Z,3.00
2018-01-25T00:19:50.624Z,1.70
2018-01-25T00:22:18.248Z,2.53
2018-01-25T00:24:45.863Z,1.70
2018-01-25T00:27:13.433Z,3.53
2018-01-25T00:29:41.841Z,4.13
2018-01-25T00:32:09.449Z,1.63
2018-01-25T00:34:37.026Z,3.20
2018-01-25T00:37:05.426Z,2.33
2018-01-25T00:39:33.214Z,4.77
2018-01-25T00:42:00.831Z,2.97
2018-01-25T00:44:28.407Z,2.80
2018-01-25T00:46:56.025Z,2.83
2018-01-25T00:49:23.704Z,2.50
2018-01-25T00:51:51.329Z,2.37
2018-01-25T00:54:18.925Z,3.07
2018-01-25T00:56:46.530Z,2.87
2018-01-25T00:59:14.109Z,3.07
2018-01-25T01:01:41.749Z,4.20
2018-01-25T01:04:09.327Z,2.97
2018-01-25T01:06:36.992Z,4.37
2018-01-25T01:09:04.811Z,3.83
2018-01-25T01:11:33.149Z,4.53
2018-01-25T01:14:00.780Z,2.77
2018-01-25T01:16:28.364Z,3.63
2018-01-25T01:18:56.087Z,5.73
2018-01-25T01:21:23.671Z,2.83
2018-01-25T01:23:51.288Z,3.80
2018-01-25T01:26:18.892Z,3.17
2018-01-25T01:28:46.533Z,5.50
2018-01-25T01:31:14.117Z,3.57
2018-01-25T01:33:41.730Z,3.83
2018-01-25T01:36:09.360Z,5.70
2018-01-25T01:38:36.968Z,4.60
2018-01-25T01:41:04.561Z,5.93
2018-01-25T01:43:32.298Z,4.80
2018-01-25T01:46:02.311Z,3.37
2018-01-25T01:48:30.003Z,3.27
2018-01-25T01:50:57.606Z,4.33
2018-01-25T01:53:25.228Z,4.83
2018-01-25T01:55:52.819Z,3.67
2018-01-25T01:58:20.404Z,2.60
2018-01-25T02:00:48.007Z,5.17
2018-01-25T02:03:15.869Z,6.50
2018-01-25T02:05:43.452Z,8.70
2018-01-25T02:08:11.092Z,5.67
2018-01-25T02:10:38.659Z,3.37
2018-01-25T02:13:06.622Z,4.63
2018-01-25T02:15:34.481Z,6.40
2018-01-25T02:18:02.876Z,5.83
2018-01-25T02:20:30.631Z,3.10
2018-01-25T02:22:58.260Z,4.53
2018-01-25T02:25:26.004Z,4.37
2018-01-25T02:27:53.642Z,6.07
2018-01-25T02:30:21.578Z,6.30
2018-01-25T02:32:52.967Z,3.67
2018-01-25T02:35:20.712Z,6.30
2018-01-25T02:37:48.329Z,8.23
2018-01-25T02:40:15.944Z,5.80
2018-01-25T02:42:43.898Z,9.23
2018-01-25T02:45:11.502Z,5.47
2018-01-25T02:47:39.325Z,9.40
2018-01-25T02:50:06.901Z,6.77
2018-01-25T02:52:34.783Z,5.80
2018-01-25T02:55:02.371Z,11.53
2018-01-25T02:57:30.113Z,10.03
2018-01-25T02:59:57.803Z,7.00
2018-01-25T03:02:25.540Z,9.50
2018-01-25T03:04:53.168Z,5.47
2018-01-25T03:07:20.740Z,9.13
2018-01-25T03:09:48.701Z,5.93
2018-01-25T03:12:16.320Z,8.27
2018-01-25T03:14:43.925Z,7.93
2018-01-25T03:17:11.552Z,7.10
2018-01-25T03:19:39.115Z,9.33
2018-01-25T03:22:06.769Z,9.80
2018-01-25T03:24:34.376Z,10.20
2018-01-25T03:27:01.952Z,11.90
2018-01-25T03:29:29.633Z,9.37
2018-01-25T03:31:57.437Z,11.53
2018-01-25T03:34:25.057Z,12.77
2018-01-25T03:36:52.695Z,10.17
2018-01-25T03:39:20.314Z,8.20
2018-01-25T03:41:48.237Z,10.07
2018-01-25T03:44:15.807Z,11.03
2018-01-25T03:46:43.445Z,11.93
2018-01-25T03:49:11.240Z,12.93
2018-01-25T03:51:38.993Z,9.30
2018-01-25T03:54:06.557Z,10.73
2018-01-25T03:56:34.429Z,13.93
2018-01-25T03:59:02.291Z,11.43
2018-01-25T04:01:29.957Z,10.27
2018-01-25T04:03:57.600Z,15.57
2018-01-25T04:06:25.214Z,10.23
2018-01-25T04:08:52.827Z,10.67
2018-01-25T04:11:20.405Z,11.07
2018-01-25T04:13:48.060Z,13.33
2018-01-25T04:16:15.754Z,14.33
2018-01-25T04:18:43.358Z,15.17
2018-01-25T04:21:10.978Z,8.80
2018-01-25T04:23:38.579Z,12.60
2018-01-25T04:26:06.206Z,15.77
2018-01-25T04:28:33.794Z,11.37
2018-01-25T04:31:02.314Z,9.50
2018-01-25T04:33:29.973Z,12.37
2018-01-25T04:35:57.542Z,8.77
2018-01-25T04:38:25.156Z,17.93
2018-01-25T04:40:53.729Z,12.33
2018-01-25T04:43:21.333Z,10.90
2018-01-25T04:45:49.160Z,9.37
2018-01-25T04:48:16.820Z,16.47
2018-01-25T04:50:44.387Z,14.40
2018-01-25T04:53:12.081Z,15.87
2018-01-25T04:55:39.652Z,15.20
2018-01-25T04:58:07.262Z,11.33
2018-01-25T05:00:35.701Z,12.23
2018-01-25T05:03:03.363Z,10.93
2018-01-25T05:05:31.112Z,20.33
2018-01-25T05:07:58.896Z,12.73
2018-01-25T05:10:26.511Z,13.70
2018-01-25T05:12:54.134Z,12.77
2018-01-25T05:15:21.822Z,11.13
2018-01-25T05:17:59.380Z,16.87
2018-01-25T05:20:27.263Z,15.97
2018-01-25T05:22:54.947Z,11.73
2018-01-25T05:25:22.599Z,10.27
2018-01-25T05:27:50.214Z,10.63
2018-01-25T05:30:18.087Z,11.80
2018-01-25T05:32:46.053Z,12.63
2018-01-25T05:35:13.665Z,16.00
2018-01-25T05:37:41.452Z,14.13
2018-01-25T05:40:09.073Z,15.60
2018-01-25T05:42:36.698Z,12.97
2018-01-25T05:45:04.319Z,17.17
2018-01-25T05:47:31.906Z,19.73
2018-01-25T05:49:59.472Z,15.13
2018-01-25T05:52:27.079Z,9.10
2018-01-25T05:54:54.827Z,18.73
2018-01-25T05:57:22.447Z,10.67
2018-01-25T05:59:50.050Z,12.13
2018-01-25T06:02:17.727Z,16.03
2018-01-25T06:04:45.513Z,11.87
2018-01-25T06:07:13.119Z,13.50
2018-01-25T06:09:40.842Z,13.33
2018-01-25T06:12:08.736Z,10.90
2018-01-25T06:14:37.156Z,13.60
2018-01-25T06:17:04.761Z,18.73
2018-01-25T06:19:32.391Z,15.63
2018-01-25T06:22:01.220Z,13.20
2018-01-25T06:24:28.852Z,18.53
2018-01-25T06:26:56.424Z,12.13
2018-01-25T06:29:24.023Z,15.03
2018-01-25T06:31:51.630Z,14.73
2018-01-25T06:34:19.318Z,18.50
2018-01-25T06:36:46.947Z,18.37
2018-01-25T06:39:15.316Z,16.57
2018-01-25T06:41:42.945Z,14.57
2018-01-25T06:44:11.672Z,19.70
2018-01-25T06:46:39.259Z,15.07
2018-01-25T06:49:06.883Z,24.13
2018-01-25T06:51:34.703Z,13.53
2018-01-25T06:54:02.414Z,15.43
2018-01-25T06:56:30.752Z,13.63
2018-01-25T06:58:59.561Z,18.90
2018-01-25T07:01:27.175Z,16.03
2018-01-25T07:03:54.808Z,13.30
2018-01-25T07:06:22.481Z,11.53
2018-01-25T07:08:50.084Z,16.37
2018-01-25T07:11:17.775Z,12.63
2018-01-25T07:13:45.577Z,12.60
2018-01-25T07:16:13.461Z,13.83
2018-01-25T07:18:41.112Z,18.57
2018-01-25T07:21:08.695Z,16.80
2018-01-25T07:23:36.331Z,18.80
2018-01-25T07:26:03.970Z,20.20
2018-01-25T07:28:31.733Z,21.03
2018-01-25T07:30:59.332Z,21.60
2018-01-25T07:33:26.949Z,18.63
2018-01-25T07:35:54.734Z,19.33
2018-01-25T07:38:22.312Z,23.27
2018-01-25T07:40:50.309Z,17.77
2018-01-25T07:43:17.919Z,18.50
2018-01-25T07:45:46.497Z,18.33
2018-01-25T07:48:14.093Z,24.03
2018-01-25T07:50:41.723Z,17.27
2018-01-25T07:53:09.312Z,18.50
2018-01-25T07:55:36.964Z,22.77
2018-01-25T07:58:19.005Z,22.43
2018-01-25T08:00:49.205Z,20.57
2018-01-25T08:03:16.871Z,19.87
2018-01-25T08:05:44.491Z,29.80
2018-01-25T08:08:12.066Z,20.87
2018-01-25T08:10:39.775Z,23.20
2018-01-25T08:13:13.079Z,23.33
2018-01-25T08:15:41.030Z,25.53
2018-01-25T08:18:08.898Z,20.90
2018-01-25T08:20:36.561Z,19.53
2018-01-25T08:23:04.200Z,21.57
2018-01-25T08:25:31.926Z,22.30
2018-01-25T08:27:59.559Z,26.47
2018-01-25T08:30:28.031Z,23.03
2018-01-25T08:32:55.670Z,23.90
2018-01-25T08:35:23.287Z,23.77
2018-01-25T08:37:50.977Z,21.53
2018-01-25T08:40:19.576Z,25.10
2018-01-25T08:42:47.330Z,20.57
2018-01-25T08:45:14.924Z,18.97
2018-01-25T08:47:42.535Z,24.10
2018-01-25T08:50:10.235Z,24.23
2018-01-25T08:52:37.846Z,19.90
2018-01-25T08:55:06.187Z,21.77
2018-01-25T08:57:33.757Z,23.70
2018-01-25T09:00:01.367Z,25.63
2018-01-25T09:02:28.975Z,26.67
2018-01-25T09:04:56.561Z,20.20
2018-01-25T09:07:24.956Z,21.70
2018-01-25T09:09:52.542Z,27.50
2018-01-25T09:12:20.118Z,21.87
2018-01-25T09:14:47.723Z,21.40
2018-01-25T09:17:16.693Z,23.87
2018-01-25T09:19:44.377Z,20.17
2018-01-25T09:22:12.055Z,26.97
2018-01-25T09:24:39.646Z,18.70
2018-01-25T09:27:07.285Z,22.60
2018-01-25T09:29:35.099Z,18.93
2018-01-25T09:32:02.669Z,20.27
2018-01-25T09:34:30.347Z,24.47
2018-01-25T09:36:58.031Z,19.70
2018-01-25T09:39:25.697Z,24.47
2018-01-25T09:41:53.364Z,21.23
2018-01-25T09:44:20.995Z,21.13
2018-01-25T09:46:48.633Z,20.83
2018-01-25T09:49:16.260Z,23.37
2018-01-25T09:51:43.847Z,19.33
2018-01-25T09:54:11.474Z,21.27
2018-01-25T09:56:39.087Z,24.63
2018-01-25T09:59:06.805Z,20.23
2018-01-25T10:01:34.447Z,23.67
2018-01-25T10:04:02.292Z,23.43
2018-01-25T10:06:29.910Z,22.60
2018-01-25T10:08:57.849Z,21.90
2018-01-25T10:11:25.786Z,21.87
2018-01-25T10:13:54.172Z,25.47
2018-01-25T10:16:21.874Z,26.30
2018-01-25T10:18:49.471Z,22.40
2018-01-25T10:21:17.592Z,20.57
2018-01-25T10:23:45.902Z,21.67
2018-01-25T10:26:13.794Z,21.57
2018-01-25T10:28:41.439Z,22.80
2018-01-25T10:31:09.052Z,24.57
2018-01-25T10:33:37.423Z,22.80
2018-01-25T10:36:05.895Z,21.67
2018-01-25T10:38:33.550Z,19.90
2018-01-25T10:41:01.326Z,26.00
2018-01-25T10:43:28.946Z,24.20
2018-01-25T10:45:56.614Z,24.90
2018-01-25T10:48:24.224Z,21.57
2018-01-25T10:50:51.859Z,22.60
2018-01-25T10:53:19.560Z,24.10
2018-01-25T10:55:48.055Z,21.03
2018-01-25T10:58:15.666Z,20.20
2018-01-25T11:00:49.019Z,19.77
2018-01-25T11:03:16.679Z,22.77
2018-01-25T11:05:44.268Z,17.40
2018-01-25T11:08:13.840Z,21.23
2018-01-25T11:10:41.722Z,17.70
2018-01-25T11:13:09.550Z,18.60
2018-01-25T11:15:37.184Z,19.37
2018-01-25T11:18:05.045Z,18.60
2018-01-25T11:20:32.676Z,20.97
2018-01-25T11:23:00.871Z,17.37
2018-01-25T11:25:29.522Z,21.47
2018-01-25T11:27:57.162Z,20.53
2018-01-25T11:30:25.409Z,25.00
2018-01-25T11:32:53.068Z,21.53
2018-01-25T11:35:20.700Z,19.27
2018-01-25T11:37:48.565Z,26.00
2018-01-25T11:40:16.144Z,20.37
2018-01-25T11:42:43.790Z,22.87
2018-01-25T11:45:11.387Z,22.07
2018-01-25T11:47:39.003Z,19.57
2018-01-25T11:50:06.724Z,22.70
2018-01-25T11:52:34.334Z,19.20
2018-01-25T11:55:02.351Z,22.10
2018-01-25T11:57:29.923Z,19.50
2018-01-25T11:59:57.518Z,22.73
2018-01-25T12:02:25.239Z,22.37
2018-01-25T12:04:52.882Z,19.57
2018-01-25T12:07:21.626Z,25.07
2018-01-25T12:09:50.039Z,20.27
2018-01-25T12:12:17.643Z,21.27
2018-01-25T12:14:45.267Z,22.40
2018-01-25T12:17:12.991Z,17.93
2018-01-25T12:19:41.374Z,22.20
2018-01-25T12:22:09.736Z,19.13
2018-01-25T12:24:37.477Z,23.03
2018-01-25T12:27:05.113Z,23.83
2018-01-25T12:29:32.723Z,23.03
2018-01-25T12:32:00.515Z,19.37
2018-01-25T12:34:28.443Z,21.40
2018-01-25T12:36:56.027Z,23.67
2018-01-25T12:39:32.831Z,21.03
2018-01-25T12:42:01.273Z,21.87
2018-01-25T12:44:30.536Z,24.60
2018-01-25T12:46:58.623Z,22.53
2018-01-25T12:49:26.346Z,24.70
2018-01-25T12:51:53.999Z,25.90
2018-01-25T12:54:21.612Z,19.20
2018-01-25T12:56:49.780Z,26.30
2018-01-25T12:59:17.388Z,21.17
2018-01-25T13:01:45.736Z,20.10
2018-01-25T13:04:13.359Z,19.73
2018-01-25T13:06:41.050Z,24.67
2018-01-25T13:09:08.647Z,25.37
2018-01-25T13:11:37.582Z,24.57
2018-01-25T13:14:05.180Z,20.73
2018-01-25T13:16:32.849Z,17.77
2018-01-25T13:19:00.498Z,18.53
2018-01-25T13:21:28.463Z,23.50
2018-01-25T13:23:56.067Z,24.47
2018-01-25T13:26:23.710Z,25.20
2018-01-25T13:28:52.612Z,28.20
2018-01-25T13:31:20.395Z,19.77
2018-01-25T13:33:48.029Z,20.03
2018-01-25T13:36:15.745Z,23.20
2018-01-25T13:38:43.605Z,26.13
2018-01-25T13:41:11.939Z,31.07
2018-01-25T13:43:39.562Z,24.17
2018-01-25T13:46:07.342Z,23.53
2018-01-25T13:48:34.971Z,26.37
2018-01-25T13:53:37.373Z,24.70
2018-01-25T13:56:05.435Z,21.53
2018-01-25T13:58:38.400Z,22.43
2018-01-25T14:01:06.734Z,27.37
2018-01-25T14:03:35.055Z,21.57
2018-01-25T14:06:03.016Z,19.97
2018-01-25T14:08:31.494Z,25.43
2018-01-25T14:10:59.107Z,23.53
2018-01-25T14:13:27.771Z,26.00
2018-01-25T14:15:56.774Z,22.07
2018-01-25T14:18:24.415Z,22.37
2018-01-25T14:20:52.764Z,21.30
2018-01-25T14:23:20.527Z,25.13
2018-01-25T14:25:49.608Z,22.33
2018-01-25T14:28:17.187Z,19.87
2018-01-25T14:30:44.807Z,24.80
2018-01-25T14:33:12.494Z,18.10
2018-01-25T14:35:40.118Z,24.20
2018-01-25T14:38:07.818Z,21.43
2018-01-25T14:40:36.662Z,22.90
2018-01-25T14:43:04.281Z,19.67
2018-01-25T14:45:32.282Z,21.03
2018-01-25T14:47:59.911Z,17.27
2018-01-25T14:50:27.523Z,19.93
2018-01-25T14:52:55.130Z,24.53
2018-01-25T14:55:22.784Z,22.80
2018-01-25T14:57:50.391Z,20.17
2018-01-25T15:00:19.801Z,20.30
2018-01-25T15:02:47.490Z,22.13
2018-01-25T15:05:16.004Z,25.70
2018-01-25T15:07:44.438Z,26.80
2018-01-25T15:10:12.378Z,21.90
2018-01-25T15:12:40.838Z,24.10
2018-01-25T15:15:08.487Z,22.07
2018-01-25T15:17:36.198Z,18.37
2018-01-25T15:20:03.855Z,23.80
2018-01-25T15:22:31.689Z,19.93
2018-01-25T15:25:04.907Z,20.60
2018-01-25T15:27:33.528Z,20.87
2018-01-25T15:30:01.365Z,20.27
2018-01-25T15:32:29.025Z,18.57
2018-01-25T15:34:56.681Z,21.57
2018-01-25T15:37:27.662Z,20.73
2018-01-25T15:39:55.235Z,20.07
2018-01-25T15:42:22.857Z,16.90
2018-01-25T15:44:50.482Z,19.60
2018-01-25T15:47:18.095Z,23.50
2018-01-25T15:49:45.751Z,18.57
2018-01-25T15:52:14.141Z,22.83
2018-01-25T15:54:41.751Z,19.47
2018-01-25T15:57:09.323Z,25.33
2018-01-25T15:59:37.097Z,20.60
2018-01-25T16:02:05.443Z,20.57
2018-01-25T16:04:33.019Z,28.37
2018-01-25T16:07:00.776Z,30.20
2018-01-25T16:09:28.346Z,24.50
2018-01-25T16:11:55.963Z,22.83
2018-01-25T16:14:23.622Z,21.13
2018-01-25T16:16:51.243Z,26.57
2018-01-25T16:19:18.866Z,27.73
2018-01-25T16:21:46.482Z,24.83
2018-01-25T16:24:14.057Z,23.13
2018-01-25T16:26:41.847Z,24.30
2018-01-25T16:29:09.487Z,27.43
2018-01-25T16:31:37.170Z,20.57
2018-01-25T16:34:04.742Z,24.27
2018-01-25T16:36:32.374Z,46.83
2018-01-25T16:38:59.958Z,55.00
2018-01-25T16:41:27.576Z,82.90
2018-01-25T16:43:55.918Z,49.07
2018-01-25T16:46:23.538Z,41.37
2018-01-25T16:48:51.246Z,27.77
2018-01-25T16:51:18.881Z,29.67
2018-01-25T16:53:46.469Z,29.23
2018-01-25T16:56:14.048Z,23.73
2018-01-25T16:58:41.691Z,30.47
2018-01-25T17:01:09.715Z,27.30
2018-01-25T17:03:37.357Z,28.43
2018-01-25T17:06:05.708Z,27.47
2018-01-25T17:08:33.479Z,29.33
2018-01-25T17:11:01.112Z,30.80
2018-01-25T17:13:28.744Z,31.20
2018-01-25T17:15:56.436Z,27.10
2018-01-25T17:18:24.070Z,34.03
2018-01-25T17:20:51.785Z,34.53
2018-01-25T17:23:19.755Z,30.77
2018-01-25T17:25:47.371Z,28.43
2018-01-25T17:28:15.114Z,26.57
2018-01-25T17:30:42.744Z,27.63
2018-01-25T17:33:10.457Z,28.17
2018-01-25T17:35:38.141Z,28.77
2018-01-25T17:38:05.743Z,28.90
2018-01-25T17:40:33.379Z,29.03
2018-01-25T17:43:01.005Z,29.17
2018-01-25T17:45:28.658Z,30.53
2018-01-25T17:47:57.092Z,28.30
2018-01-25T17:50:24.714Z,32.13
2018-01-25T17:52:52.311Z,28.93
2018-01-25T17:55:24.059Z,33.40
2018-01-25T17:57:52.816Z,30.80
2018-01-25T18:00:26.121Z,34.10
2018-01-25T18:02:53.757Z,31.50
2018-01-25T18:05:22.164Z,27.80
2018-01-25T18:07:50.074Z,26.87
2018-01-25T18:10:17.781Z,32.00
2018-01-25T18:12:45.515Z,36.10
2018-01-25T18:15:13.057Z,32.23
2018-01-25T18:17:40.700Z,27.37
2018-01-25T18:20:08.325Z,37.67
2018-01-25T18:22:35.951Z,31.97
2018-01-25T18:25:03.567Z,34.27
2018-01-25T18:27:31.322Z,34.00
2018-01-25T18:29:59.088Z,31.83
2018-01-25T18:32:26.667Z,33.77
2018-01-25T18:34:54.295Z,33.60
2018-01-25T18:37:21.953Z,34.63
2018-01-25T18:39:50.394Z,32.20
2018-01-25T18:42:19.681Z,30.50
2018-01-25T18:44:47.296Z,29.33
2018-01-25T18:47:15.096Z,31.83
2018-01-25T18:49:42.705Z,39.30
2018-01-25T18:52:10.718Z,39.47
2018-01-25T18:54:38.371Z,33.47
2018-01-25T18:57:07.137Z,42.27
2018-01-25T18:59:34.872Z,38.00
2018-01-25T19:02:02.616Z,35.60
2018-01-25T19:04:30.249Z,39.93
2018-01-25T19:07:04.655Z,33.50
2018-01-25T19:09:33.145Z,42.70
2018-01-25T19:12:00.784Z,37.37
2018-01-25T19:14:28.500Z,36.83
2018-01-25T19:16:56.206Z,33.23
2018-01-25T19:19:23.852Z,35.77
2018-01-25T19:21:51.454Z,35.70
2018-01-25T19:24:19.195Z,33.07
2018-01-25T19:26:46.795Z,36.37
2018-01-25T19:29:14.464Z,38.67
2018-01-25T19:31:42.048Z,34.33
2018-01-25T19:34:09.631Z,34.17
2018-01-25T19:36:37.263Z,37.67
2018-01-25T19:39:04.853Z,33.83
2018-01-25T19:41:32.472Z,34.40
2018-01-25T19:44:00.206Z,31.57
2018-01-25T19:46:27.851Z,37.60
2018-01-25T19:48:55.430Z,37.00
2018-01-25T19:51:23.829Z,38.63
2018-01-25T19:53:52.210Z,34.07
2018-01-25T19:56:20.660Z,43.27
2018-01-25T19:58:48.376Z,40.20
2018-01-25T20:01:15.969Z,34.63
2018-01-25T20:03:43.545Z,38.67
2018-01-25T20:06:11.244Z,38.43
2018-01-25T20:08:38.865Z,59.40
2018-01-25T20:11:06.590Z,48.57
2018-01-25T20:13:34.188Z,37.67
2018-01-25T20:16:01.805Z,41.00
2018-01-25T20:18:29.390Z,46.97
2018-01-25T20:20:57.007Z,48.93
2018-01-25T20:23:25.382Z,45.33
2018-01-25T20:25:53.772Z,44.13
2018-01-25T20:28:21.394Z,47.80
2018-01-25T20:30:49.336Z,45.27
2018-01-25T20:33:16.972Z,45.83
2018-01-25T20:35:44.614Z,59.67
2018-01-25T20:38:13.020Z,49.97
2018-01-25T20:40:40.606Z,46.47
2018-01-25T20:43:08.260Z,51.37
2018-01-25T20:45:35.950Z,44.77
2018-01-25T20:48:03.527Z,45.77
2018-01-25T20:50:31.152Z,49.90
2018-01-25T20:52:58.768Z,53.47
2018-01-25T20:55:26.558Z,44.87
2018-01-25T20:57:54.234Z,56.60
2018-01-25T21:00:21.823Z,59.83
2018-01-25T21:02:51.775Z,55.47
2018-01-25T21:05:20.111Z,59.40
2018-01-25T21:07:47.683Z,53.10
2018-01-25T21:10:15.303Z,48.60
2018-01-25T21:12:42.925Z,55.03
2018-01-25T21:15:10.548Z,51.73
2018-01-25T21:17:38.176Z,54.93
2018-01-25T21:20:05.762Z,48.63
2018-01-25T21:22:33.331Z,52.47
2018-01-25T21:25:00.949Z,55.03
2018-01-25T21:27:29.361Z,51.87
2018-01-25T21:29:56.943Z,46.40
2018-01-25T21:32:26.201Z,50.30
2018-01-25T21:34:53.772Z,42.77
2018-01-25T21:37:21.386Z,41.90
2018-01-25T21:39:49.004Z,49.60
2018-01-25T21:42:16.588Z,52.73
2018-01-25T21:44:44.222Z,54.10
2018-01-25T21:47:12.568Z,51.40
2018-01-25T21:49:40.182Z,51.80
2018-01-25T21:52:07.775Z,47.03
2018-01-25T21:54:36.282Z,48.97
2018-01-25T21:57:04.662Z,48.23
2018-01-25T21:59:33.029Z,54.83
2018-01-25T22:02:00.619Z,74.70
2018-01-25T22:04:28.234Z,54.63
2018-01-25T22:06:55.828Z,52.23
2018-01-25T22:09:23.517Z,50.37
2018-01-25T22:11:51.296Z,45.80
2018-01-25T22:14:18.885Z,45.33
2018-01-25T22:16:46.506Z,52.13
2018-01-25T22:19:14.082Z,47.50
2018-01-25T22:21:41.659Z,48.97
2018-01-25T22:24:09.281Z,46.73
2018-01-25T22:26:36.848Z,48.70
2018-01-25T22:29:04.501Z,52.83
2018-01-25T22:31:32.084Z,43.60
2018-01-25T22:33:59.686Z,51.93
2018-01-25T22:36:28.044Z,51.60
2018-01-25T22:38:55.601Z,46.00
2018-01-25T22:41:23.205Z,48.00
2018-01-25T22:43:51.577Z,44.30
2018-01-25T22:46:19.148Z,43.47
2018-01-25T22:48:47.352Z,47.50
2018-01-25T22:51:15.435Z,49.20
2018-01-25T22:53:43.065Z,71.97
2018-01-25T22:56:10.665Z,92.03
2018-01-25T22:58:39.232Z,74.67
2018-01-25T23:01:06.859Z,77.37
2018-01-25T23:03:34.458Z,66.57
2018-01-25T23:06:02.102Z,56.80
2018-01-25T23:08:29.682Z,61.13
2018-01-25T23:10:57.293Z,65.47
2018-01-25T23:13:24.863Z,68.43
2018-01-25T23:15:53.234Z,68.30
2018-01-25T23:18:21.045Z,85.40
2018-01-25T23:20:49.882Z,64.67
2018-01-25T23:23:18.491Z,66.50
2018-01-25T23:25:46.304Z,59.90
2018-01-25T23:28:13.880Z,62.43
2018-01-25T23:30:42.710Z,55.73
2018-01-25T23:33:10.706Z,60.80
2018-01-25T23:35:38.345Z,58.80
2018-01-25T23:38:06.054Z,53.03
2018-01-25T23:40:35.356Z,48.63
2018-01-25T23:43:02.966Z,58.33
2018-01-25T23:45:31.338Z,64.47
2018-01-25T23:47:58.931Z,61.13
2018-01-25T23:50:26.553Z,63.67
2018-01-25T23:52:54.171Z,72.77
2018-01-25T23:55:21.723Z,67.93
2018-01-25T23:57:49.313Z,66.17
